Home   Weather   Alton Amphitheater   Past weeks
Flag for USA

Past Weather in Alton Amphitheater, Utah, USA — Yesterday and Last 2 Weeks

Currently: 45 °F. Scattered clouds. (Weather station: Colorado City Municipal Airport, USA). See more current weather

Past Weather in Alton Amphitheater — Graph

°F

Alton Amphitheater Temperature Yesterday

Maximum temperature yesterday: 55 °F (at 1:15 pm)
Minimum temperature yesterday: 27 °F (at 6:55 am)
Average temperature yesterday: 40 °F

High & Low Weather Summary for the Past Weeks

 TemperatureHumidityPressure
High59 °F (Feb 4, 3:15 pm)100% (Feb 5, 11:15 pm)30.52 "Hg (Feb 5, 11:15 pm)
Low14 °F (Jan 24, 6:55 am)23% (Feb 1, 2:35 pm)29.76 "Hg (Jan 29, 3:15 pm)
Average33 °F68%30.16 "Hg
* Reported Jan 22 12:15 pm — Feb 6 12:35 pm, Alton Amphitheater. Weather by CustomWeather, © 2023

Note: Actual official high and low records may vary slightly from our data, if they occured in-between our weather recording intervals... More about our weather records

Alton Amphitheater Weather History for the Previous 24 Hours

Scroll right to see more
 ConditionsComfort  
Time TempWeatherWind HumidityBarometerVisibility
12:35 pm
Mon, Feb 6
43 °FScattered clouds.9 mph49%30.15 "Hg10 mi
12:15 pm43 °FSunny.6 mph53%30.16 "Hg10 mi
11:55 am43 °FSunny.9 mph53%30.16 "Hg10 mi
11:15 am39 °FSunny.12 mph70%30.16 "Hg10 mi
10:55 am37 °FSunny.14 mph75%30.16 "Hg10 mi
10:15 am34 °FSunny.6 mph93%30.15 "Hg10 mi
9:55 am32 °FSunny.5 mph100%30.14 "Hg10 mi
9:15 am30 °FSunny.5 mph100%30.13 "Hg10 mi
8:55 am28 °FSunny.No wind100%30.13 "Hg10 mi
8:35 am25 °FSunny.No wind93%30.12 "Hg10 mi
8:15 am23 °FSunny.9 mph93%30.12 "Hg10 mi
7:15 am21 °FPassing clouds.8 mph93%30.11 "Hg10 mi
6:55 am23 °FPassing clouds.3 mph93%30.11 "Hg10 mi
6:35 am21 °FIce fog.7 mph93%30.10 "Hg1 mi
6:15 am21 °FClear.8 mph93%30.09 "Hg10 mi
5:55 am21 °FClear.7 mph93%30.09 "Hg10 mi
5:15 am23 °FIce fog.8 mph93%30.09 "Hg3 mi
4:55 am23 °FIce fog.No wind100%30.08 "Hg1 mi
4:35 am23 °FIce fog.No wind93%30.08 "Hg1 mi
4:15 am23 °FIce fog.9 mph93%30.08 "Hg0 mi
3:55 am23 °FIce fog.7 mph100%30.08 "Hg1 mi
3:35 am23 °FIce fog.No wind100%30.07 "Hg0 mi
3:15 am23 °FPassing clouds.No wind100%30.07 "Hg10 mi
2:55 am25 °FClear.No wind93%30.06 "Hg10 mi
2:35 am28 °FClear.No wind100%30.07 "Hg10 mi
2:15 am28 °FClear.No wind93%30.06 "Hg10 mi
1:35 am30 °FPassing clouds.No wind100%30.05 "Hg10 mi
1:15 am30 °FClear.No wind93%30.05 "Hg10 mi
12:35 am32 °FPassing clouds.3 mph93%30.05 "Hg10 mi
12:15 am32 °FPassing clouds.No wind93%30.05 "Hg10 mi
11:35 pm
Sun, Feb 5
32 °FClear.3 mph100%30.05 "Hg10 mi
11:15 pm32 °FClear.No wind100%30.05 "Hg10 mi
10:55 pm34 °FClear.9 mph93%30.05 "Hg10 mi
10:35 pm34 °FPassing clouds.6 mph93%30.05 "Hg10 mi
10:15 pm34 °FMostly cloudy.7 mph93%30.02 "Hg10 mi
9:55 pm34 °FLight snow. Mostly cloudy.6 mph93%30.06 "Hg5 mi
9:35 pm36 °FLight snow. Overcast.12 mph87%30.06 "Hg7 mi
9:15 pm36 °FLight snow. Passing clouds.17 mph87%30.05 "Hg5 mi
8:55 pm37 °FPassing clouds.18 mph75%30.04 "Hg10 mi
8:35 pm37 °FPassing clouds.13 mph75%30.03 "Hg10 mi
8:15 pm37 °FPassing clouds.12 mph75%30.03 "Hg10 mi
7:55 pm37 °FPassing clouds.6 mph81%30.03 "Hg10 mi
7:15 pm37 °FClear.6 mph87%30.01 "Hg10 mi
6:55 pm41 °FPartly cloudy.8 mph76%30.01 "Hg10 mi
6:35 pm43 °FMostly cloudy.8 mph76%30.01 "Hg10 mi
6:15 pm43 °FPartly cloudy.9 mph76%30.01 "Hg10 mi
4:35 pm54 °FSunny.20 mph35%29.97 "Hg10 mi
4:15 pm54 °FSunny.21 mph38%29.97 "Hg10 mi
3:55 pm54 °FSunny.24 mph38%29.98 "Hg10 mi
3:15 pm55 °FScattered clouds.23 mph38%30.00 "Hg10 mi
2:55 pm55 °FBroken clouds.20 mph38%30.00 "Hg10 mi
2:35 pm55 °FScattered clouds.24 mph41%30.02 "Hg10 mi
2:15 pm54 °FScattered clouds.21 mph41%30.03 "Hg10 mi
1:55 pm55 °FScattered clouds.22 mph38%30.04 "Hg10 mi
1:35 pm55 °FScattered clouds.23 mph38%30.05 "Hg10 mi
1:15 pm55 °FScattered clouds.23 mph38%30.06 "Hg10 mi
Weather by CustomWeather, © 2023

See weather overview